createdAt,value
2022-11-22T00:00:38.315Z,-1.91
2022-11-22T00:05:41.198Z,-2.07
2022-11-22T00:10:44.150Z,-2.23
2022-11-22T00:15:58.982Z,-2.22
2022-11-22T00:21:07.065Z,-2.18
2022-11-22T00:26:12.168Z,-2.64
2022-11-22T00:31:16.573Z,-2.57
2022-11-22T00:36:19.444Z,-2.54
2022-11-22T00:41:22.745Z,-2.61
2022-11-22T00:46:27.104Z,-2.63
2022-11-22T00:51:30.025Z,-2.60
2022-11-22T00:56:33.203Z,-2.22
2022-11-22T01:01:37.560Z,-1.92
2022-11-22T01:06:40.488Z,-1.83
2022-11-22T01:11:44.381Z,-1.93
2022-11-22T01:16:49.585Z,-1.92
2022-11-22T01:21:52.786Z,-1.90
2022-11-22T01:26:56.381Z,-1.99
2022-11-22T01:32:00.728Z,-1.97
2022-11-22T01:37:03.723Z,-1.95
2022-11-22T01:42:06.685Z,-2.09
2022-11-22T01:47:14.212Z,-1.96
2022-11-22T01:52:20.482Z,-2.04
2022-11-22T01:57:26.115Z,-2.14
2022-11-22T02:02:30.374Z,-2.10
2022-11-22T02:07:41.021Z,-2.14
2022-11-22T02:12:44.399Z,-2.26
2022-11-22T02:17:48.654Z,-2.26
2022-11-22T02:22:57.271Z,-2.26
2022-11-22T02:28:01.608Z,-2.36
2022-11-22T02:33:04.738Z,-2.37
2022-11-22T02:38:10.507Z,-2.29
2022-11-22T02:43:18.009Z,-2.27
2022-11-22T02:48:20.872Z,-2.22
2022-11-22T02:53:23.790Z,-2.13
2022-11-22T02:58:28.090Z,-2.66
2022-11-22T03:03:31.685Z,-2.76
2022-11-22T03:08:35.033Z,-2.65
2022-11-22T03:13:39.438Z,-2.90
2022-11-22T03:18:42.398Z,-3.05
2022-11-22T03:23:45.267Z,-2.94
2022-11-22T03:28:49.491Z,-3.00
2022-11-22T03:33:52.503Z,-2.90
2022-11-22T03:38:55.380Z,-2.86
2022-11-22T03:43:59.746Z,-2.72
2022-11-22T03:49:02.642Z,-2.39
2022-11-22T03:54:05.988Z,-2.31
2022-11-22T03:59:10.282Z,-2.39
2022-11-22T04:04:13.318Z,-2.34
2022-11-22T04:09:16.549Z,-2.43
2022-11-22T04:14:38.054Z,-2.36
2022-11-22T04:20:01.717Z,-2.23
2022-11-22T04:25:17.078Z,-2.55
2022-11-22T04:30:21.511Z,-2.54
2022-11-22T04:35:24.371Z,-2.56
2022-11-22T04:40:27.246Z,-2.53
2022-11-22T04:45:31.549Z,-2.57
2022-11-22T04:50:52.442Z,-2.79
2022-11-22T04:55:55.445Z,-2.69
2022-11-22T05:01:00.195Z,-2.97
2022-11-22T05:06:04.267Z,-2.69
2022-11-22T05:11:07.209Z,-2.81
2022-11-22T05:16:13.614Z,-2.75
2022-11-22T05:21:16.525Z,-2.60
2022-11-22T05:26:19.548Z,-2.72
2022-11-22T05:31:27.171Z,-2.64
2022-11-22T05:36:32.900Z,-2.47
2022-11-22T05:41:35.878Z,-2.24
2022-11-22T05:46:40.149Z,-2.05
2022-11-22T05:51:43.077Z,-2.42
2022-11-22T05:56:45.941Z,-2.44
2022-11-22T06:01:50.183Z,-2.68
2022-11-22T06:06:53.099Z,-2.65
2022-11-22T06:11:55.998Z,-2.55
2022-11-22T06:17:00.265Z,-2.46
2022-11-22T06:22:03.163Z,-2.42
2022-11-22T06:27:06.000Z,-2.31
2022-11-22T06:32:10.251Z,-2.54
2022-11-22T06:37:15.984Z,-2.36
2022-11-22T06:42:19.265Z,-2.34
2022-11-22T06:47:23.542Z,-2.16
2022-11-22T06:52:27.116Z,-1.86
2022-11-22T06:57:29.953Z,-1.51
2022-11-22T07:02:34.212Z,-1.98
2022-11-22T07:07:37.142Z,-1.91
2022-11-22T07:12:40.107Z,-1.81
2022-11-22T07:17:44.649Z,-1.75
2022-11-22T07:22:48.759Z,-1.61
2022-11-22T07:27:53.414Z,-1.38
2022-11-22T07:32:57.633Z,-1.31
2022-11-22T07:38:00.603Z,-1.40
2022-11-22T07:43:04.200Z,-1.36
2022-11-22T07:48:08.728Z,-0.92
2022-11-22T07:53:11.734Z,-0.68
2022-11-22T07:58:14.668Z,-0.51
2022-11-22T08:03:22.683Z,-0.43
2022-11-22T08:08:28.574Z,-0.33
2022-11-22T08:13:32.305Z,-0.28
2022-11-22T08:18:37.696Z,-1.15
2022-11-22T08:23:41.638Z,-0.57
2022-11-22T08:28:44.900Z,-0.24
2022-11-22T08:33:49.489Z,0.10
2022-11-22T08:38:52.360Z,0.48
2022-11-22T08:43:55.364Z,0.50
2022-11-22T08:48:59.632Z,0.63
2022-11-22T08:54:02.484Z,0.81
2022-11-22T08:59:05.476Z,0.84
2022-11-22T09:04:10.721Z,0.98
2022-11-22T09:14:36.786Z,1.21
2022-11-22T09:19:41.020Z,1.14
2022-11-22T09:24:43.939Z,0.85
2022-11-22T09:29:46.851Z,1.37
2022-11-22T09:34:51.125Z,1.44
2022-11-22T09:39:54.009Z,1.69
2022-11-22T09:45:16.132Z,1.57
2022-11-22T09:50:29.631Z,1.75
2022-11-22T09:55:37.715Z,1.71
2022-11-22T10:00:44.384Z,1.71
2022-11-22T10:05:53.709Z,1.93
2022-11-22T10:10:59.649Z,1.99
2022-11-22T10:16:08.522Z,2.12
2022-11-22T10:21:15.042Z,1.72
2022-11-22T10:26:25.067Z,2.00
2022-11-22T10:31:33.808Z,2.41
2022-11-22T10:36:44.873Z,2.67
2022-11-22T10:42:01.654Z,2.95
2022-11-22T10:47:15.050Z,3.33
2022-11-22T10:52:29.598Z,3.69
2022-11-22T10:57:39.735Z,3.37
2022-11-22T11:03:06.201Z,3.33
2022-11-22T11:08:42.049Z,3.14
2022-11-22T11:13:49.394Z,3.13
2022-11-22T11:18:57.080Z,3.28
2022-11-22T11:24:01.367Z,3.41
2022-11-22T11:29:38.431Z,3.06
2022-11-22T11:34:45.628Z,2.94
2022-11-22T11:39:49.938Z,3.01
2022-11-22T11:44:53.146Z,2.96
2022-11-22T11:49:56.042Z,2.84
2022-11-22T11:55:03.413Z,2.63
2022-11-22T12:00:20.281Z,2.70
2022-11-22T12:05:29.006Z,2.61
2022-11-22T12:10:45.250Z,2.56
2022-11-22T12:15:57.966Z,2.54
2022-11-22T12:21:07.462Z,2.51
2022-11-22T12:26:11.951Z,2.61
2022-11-22T12:31:25.051Z,2.70
2022-11-22T12:36:43.235Z,2.74
2022-11-22T12:41:51.061Z,2.38
2022-11-22T12:46:58.534Z,2.49
2022-11-22T12:52:10.651Z,2.48
2022-11-22T12:57:24.194Z,2.29
2022-11-22T13:02:36.236Z,2.42
2022-11-22T13:07:54.909Z,2.57
2022-11-22T13:13:01.946Z,2.54
2022-11-22T13:18:10.524Z,2.65
2022-11-22T13:23:36.070Z,2.69
2022-11-22T13:28:42.079Z,2.69
2022-11-22T13:33:54.924Z,2.56
2022-11-22T13:38:59.592Z,2.54
2022-11-22T13:44:18.877Z,2.62
2022-11-22T13:49:46.821Z,2.38
2022-11-22T13:55:28.928Z,2.39
2022-11-22T14:00:42.867Z,2.32
2022-11-22T14:05:49.910Z,2.39
2022-11-22T14:11:12.107Z,2.42
2022-11-22T14:16:30.331Z,2.75
2022-11-22T14:21:57.426Z,2.43
2022-11-22T14:27:11.160Z,2.32
2022-11-22T14:32:19.204Z,2.33
2022-11-22T14:37:46.652Z,2.26
2022-11-22T14:42:53.871Z,2.24
2022-11-22T14:48:06.496Z,2.10
2022-11-22T14:53:21.198Z,2.22
2022-11-22T14:58:29.576Z,2.09
2022-11-22T15:09:16.117Z,2.13
2022-11-22T15:09:53.325Z,2.20
2022-11-22T15:58:57.173Z,2.02
2022-11-22T16:04:00.737Z,2.09
2022-11-22T16:09:06.445Z,2.06
2022-11-22T16:14:41.228Z,1.95
2022-11-22T16:19:44.184Z,1.99
2022-11-22T16:24:48.557Z,2.00
2022-11-22T16:29:52.561Z,2.05
2022-11-22T16:35:21.720Z,2.03
2022-11-22T16:40:19.776Z,1.85
2022-11-22T16:45:23.381Z,1.81
2022-11-22T16:50:26.428Z,1.90
2022-11-22T16:55:30.704Z,1.94
2022-11-22T17:00:35.388Z,1.65
2022-11-22T17:05:38.440Z,1.55
2022-11-22T17:10:45.520Z,1.59
2022-11-22T17:15:48.996Z,1.53
2022-11-22T17:20:51.905Z,1.37
2022-11-22T17:25:56.173Z,1.57
2022-11-22T17:31:00.246Z,1.43
2022-11-22T17:36:03.130Z,1.18
2022-11-22T17:41:07.454Z,1.24
2022-11-22T17:46:10.351Z,1.35
2022-11-22T17:51:14.034Z,1.35
2022-11-22T17:56:18.361Z,1.30
2022-11-22T18:01:22.800Z,1.44
2022-11-22T18:06:26.798Z,1.32
2022-11-22T18:11:31.123Z,1.35
2022-11-22T18:16:34.024Z,1.29
2022-11-22T18:21:38.136Z,1.01
2022-11-22T18:26:42.611Z,0.94
2022-11-22T18:31:52.310Z,0.98
2022-11-22T18:37:09.630Z,0.91
2022-11-22T18:42:16.780Z,0.84
2022-11-22T18:47:19.769Z,0.64
2022-11-22T18:52:23.113Z,0.63
2022-11-22T18:57:27.666Z,0.59
2022-11-22T19:02:30.590Z,0.64
2022-11-22T19:07:33.500Z,0.70
2022-11-22T19:12:37.746Z,0.82
2022-11-22T19:17:41.032Z,0.70
2022-11-22T19:22:43.932Z,0.67
2022-11-22T19:27:49.681Z,0.51
2022-11-22T19:32:52.569Z,0.54
2022-11-22T19:37:55.531Z,0.49
2022-11-22T19:42:59.806Z,0.12
2022-11-22T19:48:02.667Z,0.15
2022-11-22T19:53:05.904Z,0.31
2022-11-22T19:58:10.186Z,0.46
2022-11-22T20:03:14.394Z,0.35
2022-11-22T20:08:17.286Z,0.48
2022-11-22T20:13:21.507Z,0.43
2022-11-22T20:18:24.418Z,0.45
2022-11-22T20:23:27.318Z,0.45
2022-11-22T20:28:31.940Z,0.43
2022-11-22T20:33:35.920Z,0.31
2022-11-22T20:38:40.522Z,0.34
2022-11-22T20:43:45.277Z,0.30
2022-11-22T20:48:49.242Z,0.25
2022-11-22T20:53:52.669Z,0.32
2022-11-22T20:58:56.944Z,0.26
2022-11-22T21:03:59.921Z,0.25
2022-11-22T21:09:03.009Z,0.26
2022-11-22T21:14:07.403Z,0.15
2022-11-22T21:19:10.710Z,0.17
2022-11-22T21:24:14.131Z,0.22
2022-11-22T21:29:18.362Z,0.26
2022-11-22T21:34:21.219Z,0.17
2022-11-22T21:39:24.101Z,0.12
2022-11-22T21:44:28.442Z,0.29
2022-11-22T21:49:31.524Z,0.40
2022-11-22T21:54:34.587Z,0.40
2022-11-22T21:59:38.842Z,0.42
2022-11-22T22:04:41.754Z,0.45
2022-11-22T22:09:44.650Z,0.44
2022-11-22T22:14:48.855Z,0.43
2022-11-22T22:19:53.271Z,0.40
2022-11-22T22:24:56.136Z,0.46
2022-11-22T22:30:00.461Z,0.49
2022-11-22T22:35:03.796Z,0.43
2022-11-22T22:40:07.713Z,0.45
2022-11-22T22:45:12.558Z,0.39
2022-11-22T22:50:16.149Z,0.46
2022-11-22T22:55:19.066Z,0.39
2022-11-22T23:00:23.524Z,0.16
2022-11-22T23:05:26.444Z,0.19
2022-11-22T23:10:29.366Z,0.12
2022-11-22T23:15:56.849Z,-0.01
2022-11-22T23:20:59.834Z,0.22
2022-11-22T23:26:04.040Z,0.13
2022-11-22T23:31:10.097Z,0.16
2022-11-22T23:36:14.554Z,0.01
2022-11-22T23:41:20.054Z,-0.06
2022-11-22T23:46:27.395Z,-0.06
2022-11-22T23:51:31.721Z,-0.08
2022-11-22T23:56:36.365Z,-0.09
